createdAt,value
2023-03-15T00:00:57.503Z,1.20
2023-03-15T00:01:57.481Z,1.00
2023-03-15T00:02:57.554Z,0.90
2023-03-15T00:03:57.538Z,0.90
2023-03-15T00:04:57.489Z,1.00
2023-03-15T00:05:57.445Z,0.90
2023-03-15T00:06:57.436Z,0.70
2023-03-15T00:07:57.430Z,0.80
2023-03-15T00:08:57.437Z,0.80
2023-03-15T00:09:57.410Z,1.00
2023-03-15T00:10:57.401Z,0.90
2023-03-15T00:11:57.399Z,1.10
2023-03-15T00:12:57.419Z,1.10
2023-03-15T00:13:57.631Z,0.90
2023-03-15T00:14:57.384Z,1.30
2023-03-15T00:15:57.408Z,1.10
2023-03-15T00:16:57.392Z,1.20
2023-03-15T00:17:57.344Z,1.20
2023-03-15T00:18:57.341Z,1.00
2023-03-15T00:19:57.318Z,1.20
2023-03-15T00:20:57.332Z,0.80
2023-03-15T00:21:57.290Z,1.20
2023-03-15T00:22:57.294Z,0.80
2023-03-15T00:23:57.277Z,0.90
2023-03-15T00:24:57.265Z,0.80
2023-03-15T00:25:57.259Z,0.60
2023-03-15T00:26:57.289Z,0.60
2023-03-15T00:27:57.240Z,0.70
2023-03-15T00:28:57.249Z,0.70
2023-03-15T00:29:57.228Z,0.50
2023-03-15T00:30:57.208Z,0.80
2023-03-15T00:31:57.212Z,0.90
2023-03-15T00:32:57.257Z,0.60
2023-03-15T00:33:57.179Z,0.70
2023-03-15T00:34:57.198Z,0.70
2023-03-15T00:35:57.177Z,0.60
2023-03-15T00:36:57.157Z,0.70
2023-03-15T00:37:57.141Z,0.70
2023-03-15T00:38:57.167Z,0.70
2023-03-15T00:39:57.144Z,0.50
2023-03-15T00:40:57.115Z,0.60
2023-03-15T00:41:57.256Z,0.70
2023-03-15T00:42:57.109Z,0.70
2023-03-15T00:43:57.082Z,0.60
2023-03-15T00:44:57.105Z,0.80
2023-03-15T00:45:57.123Z,0.70
2023-03-15T00:46:57.124Z,0.60
2023-03-15T00:47:57.088Z,0.80
2023-03-15T00:48:57.040Z,0.70
2023-03-15T00:49:57.035Z,0.70
2023-03-15T00:50:57.024Z,0.80
2023-03-15T00:51:57.064Z,0.70
2023-03-15T00:52:56.996Z,0.70
2023-03-15T00:53:57.006Z,0.70
2023-03-15T00:54:56.997Z,0.70
2023-03-15T00:55:56.970Z,0.70
2023-03-15T00:56:56.975Z,0.70
2023-03-15T00:57:56.991Z,0.80
2023-03-15T00:58:56.955Z,0.70
2023-03-15T00:59:56.956Z,0.90
2023-03-15T01:00:56.914Z,0.80
2023-03-15T01:01:56.955Z,0.70
2023-03-15T01:02:56.932Z,0.80
2023-03-15T01:03:56.911Z,0.80
2023-03-15T01:04:56.874Z,0.70
2023-03-15T01:05:56.881Z,0.80
2023-03-15T01:06:56.960Z,0.80
2023-03-15T01:07:56.869Z,0.90
2023-03-15T01:08:56.838Z,0.90
2023-03-15T01:09:56.838Z,0.90
2023-03-15T01:10:56.833Z,0.90
2023-03-15T01:11:56.844Z,0.60
2023-03-15T01:12:56.819Z,0.80
2023-03-15T01:13:56.828Z,1.00
2023-03-15T01:14:56.807Z,1.20
2023-03-15T01:15:56.931Z,0.80
2023-03-15T01:16:56.785Z,0.90
2023-03-15T01:17:56.784Z,1.10
2023-03-15T01:18:56.754Z,1.00
2023-03-15T01:19:56.739Z,0.90
2023-03-15T01:20:56.726Z,0.80
2023-03-15T01:21:56.718Z,0.90
2023-03-15T01:22:56.737Z,1.10
2023-03-15T01:23:56.704Z,0.90
2023-03-15T01:24:56.695Z,1.00
2023-03-15T01:25:56.688Z,0.90
2023-03-15T01:26:56.684Z,0.70
2023-03-15T01:27:56.686Z,0.80
2023-03-15T01:28:56.668Z,0.80
2023-03-15T01:29:56.673Z,0.90
2023-03-15T01:30:56.627Z,1.00
2023-03-15T01:31:56.624Z,1.00
2023-03-15T01:32:56.711Z,1.00
2023-03-15T01:33:56.618Z,0.90
2023-03-15T01:34:56.607Z,0.70
2023-03-15T01:35:56.648Z,0.90
2023-03-15T01:36:56.586Z,1.00
2023-03-15T01:37:56.561Z,0.80
2023-03-15T01:38:56.574Z,0.80
2023-03-15T01:39:56.543Z,0.90
2023-03-15T01:40:56.586Z,1.00
2023-03-15T01:41:56.524Z,1.20
2023-03-15T01:42:56.511Z,0.90
2023-03-15T01:43:56.502Z,1.00
2023-03-15T01:44:56.497Z,1.10
2023-03-15T01:45:56.519Z,1.00
2023-03-15T01:46:56.562Z,0.90
2023-03-15T01:47:56.475Z,0.70
2023-03-15T01:48:56.457Z,0.90
2023-03-15T01:49:56.472Z,0.90
2023-03-15T01:50:56.438Z,1.00
2023-03-15T01:51:56.433Z,1.00
2023-03-15T01:52:56.434Z,0.90
2023-03-15T01:53:56.999Z,1.00
2023-03-15T01:54:56.395Z,0.80
2023-03-15T01:55:56.389Z,1.10
2023-03-15T01:56:56.389Z,0.90
2023-03-15T01:57:56.410Z,0.80
2023-03-15T01:58:56.363Z,0.70
2023-03-15T01:59:56.412Z,0.80
2023-03-15T02:02:15.550Z,0.90
2023-03-15T02:03:16.533Z,1.00
2023-03-15T02:04:16.480Z,0.80
2023-03-15T02:05:16.491Z,0.80
2023-03-15T02:06:16.474Z,0.90
2023-03-15T02:07:16.458Z,0.80
2023-03-15T02:08:16.440Z,0.80
2023-03-15T02:09:16.437Z,0.80
2023-03-15T02:10:16.420Z,0.80
2023-03-15T02:11:16.470Z,0.70
2023-03-15T02:12:16.415Z,0.80
2023-03-15T02:13:16.413Z,0.80
2023-03-15T02:14:16.427Z,0.90
2023-03-15T02:15:16.405Z,1.10
2023-03-15T02:16:16.435Z,1.00
2023-03-15T02:17:16.365Z,0.90
2023-03-15T02:18:16.365Z,1.00
2023-03-15T02:19:16.349Z,1.00
2023-03-15T02:20:16.335Z,0.90
2023-03-15T02:21:16.352Z,0.90
2023-03-15T02:22:16.363Z,0.80
2023-03-15T02:23:16.312Z,0.90
2023-03-15T02:24:16.323Z,1.00
2023-03-15T02:25:16.303Z,0.80
2023-03-15T02:26:16.286Z,1.00
2023-03-15T02:27:16.325Z,0.80
2023-03-15T02:28:16.301Z,0.80
2023-03-15T02:29:16.257Z,0.80
2023-03-15T02:30:16.275Z,1.10
2023-03-15T02:31:16.263Z,0.90
2023-03-15T02:32:16.227Z,0.90
2023-03-15T02:33:16.240Z,0.80
2023-03-15T02:34:16.198Z,1.20
2023-03-15T02:35:16.214Z,1.10
2023-03-15T02:36:16.166Z,1.10
2023-03-15T02:37:16.172Z,1.20
2023-03-15T02:38:16.166Z,0.90
2023-03-15T02:39:16.136Z,1.00
2023-03-15T02:40:16.141Z,1.10
2023-03-15T02:41:16.131Z,1.10
2023-03-15T02:42:16.141Z,0.80
2023-03-15T02:43:16.107Z,1.10
2023-03-15T02:44:16.115Z,1.10
2023-03-15T02:45:16.099Z,0.80
2023-03-15T02:46:16.180Z,1.20
2023-03-15T02:47:16.090Z,1.10
2023-03-15T02:48:16.101Z,0.90
2023-03-15T02:49:16.093Z,1.20
2023-03-15T02:50:16.051Z,1.00
2023-03-15T02:51:16.036Z,0.90
2023-03-15T02:52:16.032Z,1.20
2023-03-15T02:53:16.033Z,1.20
2023-03-15T02:54:16.012Z,1.10
2023-03-15T02:55:16.018Z,1.20
2023-03-15T02:56:15.997Z,1.30
2023-03-15T02:57:15.988Z,1.00
2023-03-15T02:58:15.998Z,1.00
2023-03-15T02:59:15.974Z,1.00
2023-03-15T03:00:16.029Z,1.10
2023-03-15T03:01:15.991Z,1.20
2023-03-15T03:02:15.975Z,1.20
2023-03-15T03:03:15.917Z,1.20
2023-03-15T03:04:15.915Z,1.20
2023-03-15T03:05:15.903Z,1.10
2023-03-15T03:06:15.916Z,1.20
2023-03-15T03:07:15.923Z,1.10
2023-03-15T03:08:15.889Z,1.40
2023-03-15T03:09:15.892Z,1.40
2023-03-15T03:10:15.873Z,1.40
2023-03-15T03:11:15.846Z,1.40
2023-03-15T03:12:15.840Z,1.50
2023-03-15T03:13:15.851Z,1.50
2023-03-15T03:14:15.833Z,1.40
2023-03-15T03:15:15.824Z,1.20
2023-03-15T03:16:15.856Z,1.50
2023-03-15T03:17:15.796Z,1.50
2023-03-15T03:18:15.830Z,1.60
2023-03-15T03:19:15.771Z,1.90
2023-03-15T03:20:15.759Z,1.70
2023-03-15T03:21:15.772Z,2.10
2023-03-15T03:22:15.726Z,1.70
2023-03-15T03:23:15.770Z,1.80
2023-03-15T03:24:15.744Z,2.10
2023-03-15T03:25:15.726Z,2.20
2023-03-15T03:26:15.689Z,1.90
2023-03-15T03:27:15.708Z,2.40
2023-03-15T03:28:15.687Z,1.70
2023-03-15T03:29:15.659Z,2.00
2023-03-15T03:30:15.657Z,1.80
2023-03-15T03:31:15.709Z,2.20
2023-03-15T03:32:15.628Z,2.10
2023-03-15T03:33:15.670Z,2.00
2023-03-15T03:34:15.750Z,1.80
2023-03-15T03:35:16.295Z,2.30
2023-03-15T03:36:15.615Z,2.10
2023-03-15T03:37:15.639Z,2.50
2023-03-15T03:38:15.625Z,2.00
2023-03-15T03:39:15.570Z,2.60
2023-03-15T03:40:15.605Z,1.80
2023-03-15T03:41:15.570Z,2.10
2023-03-15T03:42:15.560Z,2.00
2023-03-15T03:43:15.546Z,2.30
2023-03-15T03:44:15.517Z,2.50
2023-03-15T03:45:15.539Z,2.00
2023-03-15T03:46:15.568Z,2.10
2023-03-15T03:47:15.490Z,2.30
2023-03-15T03:48:15.513Z,1.90
2023-03-15T03:49:15.473Z,2.20
2023-03-15T03:50:15.498Z,1.90
2023-03-15T03:51:15.487Z,2.00
2023-03-15T03:52:15.488Z,2.10
2023-03-15T03:53:15.471Z,1.90
2023-03-15T03:54:17.613Z,2.50
2023-03-15T03:55:15.406Z,2.50
2023-03-15T03:56:15.420Z,1.60
2023-03-15T03:57:15.467Z,1.60
2023-03-15T03:58:15.377Z,1.90
2023-03-15T03:59:15.425Z,2.00
2023-03-15T04:00:15.372Z,1.90
2023-03-15T04:01:15.368Z,2.30
2023-03-15T04:02:15.414Z,2.10
2023-03-15T04:03:15.385Z,2.10
2023-03-15T04:04:15.416Z,2.30
2023-03-15T04:05:15.328Z,2.40
2023-03-15T04:06:15.343Z,2.80
2023-03-15T04:07:17.019Z,1.90
2023-03-15T04:08:15.289Z,1.80
2023-03-15T04:09:15.332Z,2.40
2023-03-15T04:10:15.288Z,2.10
2023-03-15T04:11:15.257Z,1.70
2023-03-15T04:12:15.286Z,2.30
2023-03-15T04:13:15.241Z,2.00
2023-03-15T04:14:15.241Z,1.80
2023-03-15T04:15:15.220Z,1.80
2023-03-15T04:16:15.250Z,2.20
2023-03-15T04:17:15.198Z,2.00
2023-03-15T04:18:15.233Z,1.90
2023-03-15T04:19:15.178Z,1.90
2023-03-15T04:20:15.168Z,2.10
2023-03-15T04:21:15.212Z,1.90
2023-03-15T04:22:15.156Z,2.00
2023-03-15T04:23:15.138Z,1.80
2023-03-15T04:24:15.145Z,1.40
2023-03-15T04:25:15.138Z,2.00
2023-03-15T04:26:15.116Z,1.80
2023-03-15T04:27:15.122Z,1.70
2023-03-15T04:28:15.090Z,1.50
2023-03-15T04:29:15.121Z,1.80
2023-03-15T04:30:15.080Z,1.70
2023-03-15T04:31:15.085Z,2.30
2023-03-15T04:32:15.099Z,1.40
2023-03-15T04:33:15.093Z,1.40
2023-03-15T04:34:15.040Z,1.80
2023-03-15T04:35:15.062Z,1.70
2023-03-15T04:36:15.074Z,2.00
2023-03-15T04:37:15.013Z,1.80
2023-03-15T04:38:15.036Z,1.30
2023-03-15T04:39:15.050Z,1.40
2023-03-15T04:40:14.986Z,1.40
2023-03-15T04:41:14.995Z,1.50
2023-03-15T04:42:14.970Z,1.80
2023-03-15T04:43:15.000Z,1.50
2023-03-15T04:44:14.982Z,1.90
2023-03-15T04:45:14.963Z,1.90
2023-03-15T04:46:15.019Z,1.60
2023-03-15T04:47:14.996Z,1.50
2023-03-15T04:48:14.918Z,1.50
2023-03-15T04:49:14.898Z,1.30
2023-03-15T04:50:14.892Z,1.50
2023-03-15T04:51:14.896Z,1.80
2023-03-15T04:52:14.890Z,1.80
2023-03-15T04:53:14.859Z,1.30
2023-03-15T04:54:14.857Z,1.60
2023-03-15T04:55:14.865Z,1.20
2023-03-15T04:56:14.838Z,1.30
2023-03-15T04:57:14.842Z,1.30
2023-03-15T04:58:14.834Z,1.60
2023-03-15T04:59:14.815Z,1.40
2023-03-15T05:00:14.809Z,1.20
2023-03-15T05:01:14.895Z,1.10
2023-03-15T05:02:14.810Z,1.20
2023-03-15T05:03:14.801Z,1.40
2023-03-15T05:04:14.775Z,1.70
2023-03-15T05:05:14.766Z,2.00
2023-03-15T05:06:14.708Z,1.40
2023-03-15T05:07:14.676Z,1.50
2023-03-15T05:08:14.746Z,2.00
2023-03-15T05:09:14.667Z,1.50
2023-03-15T05:10:14.704Z,1.30
2023-03-15T05:11:14.642Z,1.50
2023-03-15T05:12:14.648Z,1.60
2023-03-15T05:13:14.633Z,1.20
2023-03-15T05:14:14.633Z,1.70
2023-03-15T05:15:14.716Z,1.70
2023-03-15T05:16:14.671Z,1.40
2023-03-15T05:17:14.585Z,1.50
2023-03-15T05:18:14.584Z,1.60
2023-03-15T05:19:14.608Z,1.70
2023-03-15T05:20:14.564Z,1.20
2023-03-15T05:21:14.566Z,1.00
2023-03-15T05:22:14.545Z,1.20
2023-03-15T05:23:14.607Z,1.20
2023-03-15T05:24:14.559Z,1.40
2023-03-15T05:25:14.501Z,1.10
2023-03-15T05:26:14.500Z,1.40
2023-03-15T05:27:14.547Z,1.40
2023-03-15T05:28:14.475Z,1.20
2023-03-15T05:29:14.473Z,1.10
2023-03-15T05:30:14.519Z,1.30
2023-03-15T05:31:14.467Z,1.30
2023-03-15T05:32:14.437Z,1.50
2023-03-15T05:33:14.438Z,1.40
2023-03-15T05:34:14.451Z,1.30
2023-03-15T05:35:14.419Z,1.10
2023-03-15T05:36:14.399Z,1.50
2023-03-15T05:37:14.409Z,1.30
2023-03-15T05:38:14.409Z,1.20
2023-03-15T05:39:14.367Z,0.90
2023-03-15T05:40:14.378Z,1.20
2023-03-15T05:41:14.362Z,1.30
2023-03-15T05:42:14.341Z,1.10
2023-03-15T05:43:14.349Z,1.40
2023-03-15T05:44:14.392Z,1.50
2023-03-15T05:45:14.308Z,1.10
2023-03-15T05:46:14.368Z,1.30
2023-03-15T05:47:14.372Z,1.60
2023-03-15T05:48:14.280Z,1.40
2023-03-15T05:49:14.267Z,1.30
2023-03-15T05:50:14.318Z,1.50
2023-03-15T05:51:14.251Z,1.70
2023-03-15T05:52:14.243Z,1.30
2023-03-15T05:53:14.233Z,1.20
2023-03-15T05:54:14.256Z,1.30
2023-03-15T05:55:14.214Z,1.70
2023-03-15T05:56:14.223Z,1.20
2023-03-15T05:57:14.237Z,1.10
2023-03-15T05:58:14.187Z,1.40
2023-03-15T05:59:14.171Z,1.20
2023-03-15T06:00:14.179Z,1.20
2023-03-15T06:01:14.211Z,1.30
2023-03-15T06:02:14.161Z,1.20
2023-03-15T06:03:14.147Z,1.30
2023-03-15T06:04:14.168Z,1.50
2023-03-15T06:05:14.122Z,1.70
2023-03-15T06:06:14.116Z,1.40
2023-03-15T06:07:14.156Z,1.30
2023-03-15T06:08:14.090Z,1.40
2023-03-15T06:09:14.094Z,1.60
2023-03-15T06:10:14.112Z,1.30
2023-03-15T06:11:14.087Z,1.00
2023-03-15T06:12:14.050Z,1.70
2023-03-15T06:13:16.026Z,1.30
2023-03-15T06:14:14.051Z,1.40
2023-03-15T06:15:14.054Z,1.30
2023-03-15T06:16:14.074Z,1.10
2023-03-15T06:17:14.025Z,1.10
2023-03-15T06:18:14.017Z,1.30
2023-03-15T06:19:14.044Z,1.30
2023-03-15T06:20:14.001Z,1.50
2023-03-15T06:21:13.964Z,1.30
2023-03-15T06:22:13.977Z,1.40
2023-03-15T06:23:13.947Z,1.30
2023-03-15T06:24:14.622Z,1.10
2023-03-15T06:25:13.928Z,1.30
2023-03-15T06:26:13.943Z,1.00
2023-03-15T06:27:13.919Z,1.40
2023-03-15T06:28:13.934Z,1.10
2023-03-15T06:29:13.921Z,1.00
2023-03-15T06:30:15.971Z,1.10
2023-03-15T06:31:13.921Z,1.30
2023-03-15T06:32:13.862Z,1.30
2023-03-15T06:33:13.857Z,1.40
2023-03-15T06:34:13.876Z,1.20
2023-03-15T06:35:13.852Z,1.20
2023-03-15T06:36:13.819Z,1.50
2023-03-15T06:37:16.315Z,1.30
2023-03-15T06:38:13.871Z,1.60
2023-03-15T06:39:13.839Z,1.40
2023-03-15T06:40:13.778Z,1.10
2023-03-15T06:41:13.792Z,1.60
2023-03-15T06:42:13.808Z,1.10
2023-03-15T06:43:13.764Z,1.20
2023-03-15T06:44:13.769Z,1.20
2023-03-15T06:45:13.768Z,1.50
2023-03-15T06:46:13.796Z,1.50
2023-03-15T06:47:13.726Z,1.50
2023-03-15T06:48:13.760Z,1.20
2023-03-15T06:49:13.707Z,1.30
2023-03-15T06:50:13.740Z,1.40
2023-03-15T06:51:13.688Z,1.40
2023-03-15T06:52:13.700Z,1.30
2023-03-15T06:53:13.666Z,1.20
2023-03-15T06:54:13.676Z,1.40
2023-03-15T06:55:13.647Z,1.70
2023-03-15T06:56:13.632Z,1.50
2023-03-15T06:57:13.653Z,1.30
2023-03-15T06:58:13.633Z,1.40
2023-03-15T06:59:13.616Z,1.50
2023-03-15T07:00:13.598Z,1.30
2023-03-15T07:01:13.603Z,1.30
2023-03-15T07:02:13.656Z,1.60
2023-03-15T07:03:13.569Z,1.20
2023-03-15T07:04:13.597Z,1.50
2023-03-15T07:05:13.544Z,1.40
2023-03-15T07:06:13.562Z,0.90
2023-03-15T07:07:13.576Z,1.60
2023-03-15T07:08:13.511Z,1.20
2023-03-15T07:09:13.505Z,1.30
2023-03-15T07:10:13.493Z,1.50
2023-03-15T07:11:13.487Z,1.10
2023-03-15T07:12:13.487Z,1.50
2023-03-15T07:13:13.492Z,1.00
2023-03-15T07:14:13.483Z,1.80
2023-03-15T07:15:14.222Z,1.60
2023-03-15T07:16:13.529Z,1.60
2023-03-15T07:17:13.442Z,1.40
2023-03-15T07:18:13.466Z,1.70
2023-03-15T07:19:13.419Z,1.50
2023-03-15T07:20:13.409Z,1.20
2023-03-15T07:21:13.384Z,1.20
2023-03-15T07:22:13.418Z,1.50
2023-03-15T07:23:13.366Z,1.40
2023-03-15T07:24:13.368Z,1.50
2023-03-15T07:25:13.353Z,1.40
2023-03-15T07:26:13.409Z,1.40
2023-03-15T07:27:15.668Z,1.40
2023-03-15T07:28:13.335Z,1.50
2023-03-15T07:29:13.314Z,1.20
2023-03-15T07:30:13.300Z,1.50
2023-03-15T07:31:13.320Z,1.40
2023-03-15T07:32:13.410Z,1.20
2023-03-15T07:33:13.342Z,1.50
2023-03-15T07:34:13.288Z,1.60
2023-03-15T07:35:13.602Z,1.60
2023-03-15T07:36:13.263Z,1.50
2023-03-15T07:37:13.241Z,1.30
2023-03-15T07:38:13.234Z,1.50
2023-03-15T07:39:13.211Z,1.40
2023-03-15T07:40:13.251Z,1.60
2023-03-15T07:41:13.198Z,1.40
2023-03-15T07:42:13.187Z,1.30
2023-03-15T07:43:13.176Z,1.30
2023-03-15T07:44:13.194Z,1.20
2023-03-15T07:45:13.145Z,1.40
2023-03-15T07:46:13.187Z,1.50
2023-03-15T07:47:13.179Z,1.20
2023-03-15T07:48:14.123Z,1.50
2023-03-15T07:49:13.101Z,1.40
2023-03-15T07:50:14.611Z,1.50
2023-03-15T07:51:13.102Z,1.30
2023-03-15T07:52:13.078Z,1.10
2023-03-15T07:53:13.083Z,1.20
2023-03-15T07:54:13.081Z,0.90
2023-03-15T07:55:13.070Z,1.30
2023-03-15T07:56:13.044Z,1.50
2023-03-15T07:57:13.018Z,1.00
2023-03-15T07:58:13.014Z,1.20
2023-03-15T07:59:13.011Z,1.40
2023-03-15T08:00:12.998Z,1.80
2023-03-15T08:01:13.016Z,1.40
2023-03-15T08:02:13.048Z,1.30
2023-03-15T08:03:13.090Z,1.40
2023-03-15T08:04:12.960Z,1.00
2023-03-15T08:05:12.973Z,1.40
2023-03-15T08:06:12.947Z,1.60
2023-03-15T08:07:12.934Z,1.20
2023-03-15T08:08:12.906Z,1.10
2023-03-15T08:09:12.979Z,1.40
2023-03-15T08:10:12.896Z,1.20
2023-03-15T08:11:12.876Z,1.60
2023-03-15T08:12:12.889Z,1.30
2023-03-15T08:13:12.900Z,1.10
2023-03-15T08:14:12.854Z,1.30
2023-03-15T08:15:12.879Z,1.50
2023-03-15T08:16:12.909Z,1.20
2023-03-15T08:17:12.821Z,1.30
2023-03-15T08:18:12.824Z,1.40
2023-03-15T08:19:12.795Z,1.50
2023-03-15T08:20:12.808Z,1.40
2023-03-15T08:21:12.795Z,1.60
2023-03-15T08:22:12.793Z,1.20
2023-03-15T08:23:12.757Z,1.20
2023-03-15T08:24:12.823Z,1.30
2023-03-15T08:25:12.736Z,1.50
2023-03-15T08:26:12.725Z,1.10
2023-03-15T08:27:12.745Z,1.30
2023-03-15T08:28:12.717Z,1.10
2023-03-15T08:29:12.713Z,1.30
2023-03-15T08:30:12.712Z,1.30
2023-03-15T08:31:12.720Z,1.60
2023-03-15T08:32:12.667Z,1.40
2023-03-15T08:33:12.808Z,1.60
2023-03-15T08:34:12.672Z,1.30
2023-03-15T08:35:15.506Z,0.80
2023-03-15T08:36:12.653Z,1.60
2023-03-15T08:37:12.623Z,1.20
2023-03-15T08:38:12.621Z,1.10
2023-03-15T08:39:12.650Z,1.00
2023-03-15T08:40:12.595Z,1.10
2023-03-15T08:41:12.592Z,1.00
2023-03-15T08:42:12.580Z,1.30
2023-03-15T08:43:12.573Z,1.30
2023-03-15T08:44:12.588Z,1.20
2023-03-15T08:45:12.548Z,1.40
2023-03-15T08:46:12.634Z,1.00
2023-03-15T08:47:12.527Z,1.10
2023-03-15T08:48:12.530Z,1.20
2023-03-15T08:49:12.494Z,1.70
2023-03-15T08:50:12.520Z,1.40
2023-03-15T08:51:12.511Z,1.40
2023-03-15T08:52:12.458Z,1.10
2023-03-15T08:53:12.452Z,1.00
2023-03-15T08:54:12.440Z,1.20
2023-03-15T08:55:12.513Z,1.20
2023-03-15T08:56:12.437Z,1.20
2023-03-15T08:57:12.421Z,1.10
2023-03-15T08:58:12.402Z,1.20
2023-03-15T08:59:19.291Z,1.10
2023-03-15T09:00:12.384Z,1.20
2023-03-15T09:01:12.372Z,1.10
2023-03-15T09:02:12.430Z,1.40
2023-03-15T09:03:12.382Z,1.30
2023-03-15T09:04:12.376Z,0.90
2023-03-15T09:05:12.333Z,1.10
2023-03-15T09:06:12.312Z,1.10
2023-03-15T09:07:12.311Z,0.90
2023-03-15T09:08:12.335Z,0.90
2023-03-15T09:09:12.299Z,1.30
2023-03-15T09:10:12.275Z,1.20
2023-03-15T09:11:12.279Z,1.10
2023-03-15T09:12:12.254Z,1.10
2023-03-15T09:13:12.261Z,1.10
2023-03-15T09:14:12.252Z,0.80
2023-03-15T09:15:12.269Z,0.90
2023-03-15T09:16:12.227Z,0.60
2023-03-15T09:17:12.323Z,0.80
2023-03-15T09:18:12.209Z,0.80
2023-03-15T09:19:12.183Z,0.60
2023-03-15T09:20:12.188Z,0.80
2023-03-15T09:21:12.169Z,0.80
2023-03-15T09:22:17.203Z,0.90
2023-03-15T09:23:12.191Z,0.90
2023-03-15T09:24:12.172Z,0.90
2023-03-15T09:25:12.130Z,1.30
2023-03-15T09:26:12.137Z,0.90
2023-03-15T09:27:12.166Z,0.70
2023-03-15T09:28:12.103Z,1.10
2023-03-15T09:29:12.110Z,1.50
2023-03-15T09:30:12.075Z,0.90
2023-03-15T09:31:12.150Z,0.80
2023-03-15T09:32:12.077Z,1.10
2023-03-15T09:33:12.065Z,0.90
2023-03-15T09:34:12.042Z,1.00
2023-03-15T09:35:12.043Z,1.10
2023-03-15T09:36:12.028Z,1.00
2023-03-15T09:37:12.015Z,1.00
2023-03-15T09:38:12.013Z,1.00
2023-03-15T09:39:12.015Z,0.90
2023-03-15T09:40:11.974Z,1.00
2023-03-15T09:41:11.971Z,0.70
2023-03-15T09:42:11.958Z,0.60
2023-03-15T09:43:11.974Z,0.90
2023-03-15T09:44:11.949Z,0.90
2023-03-15T09:45:11.932Z,1.00
2023-03-15T09:46:12.007Z,0.80
2023-03-15T09:47:11.926Z,1.10
2023-03-15T09:48:11.901Z,1.00
2023-03-15T09:49:11.887Z,0.90
2023-03-15T09:50:11.890Z,0.90
2023-03-15T09:51:11.883Z,0.90
2023-03-15T09:52:11.853Z,0.80
2023-03-15T09:53:11.852Z,0.80
2023-03-15T09:54:11.854Z,1.20
2023-03-15T09:55:11.875Z,1.00
2023-03-15T09:56:11.810Z,1.00
2023-03-15T09:57:11.835Z,0.80
2023-03-15T09:58:11.815Z,0.80
2023-03-15T09:59:11.790Z,1.00
2023-03-15T10:00:11.773Z,1.10
2023-03-15T10:01:11.798Z,0.80
2023-03-15T10:02:11.748Z,1.20
2023-03-15T10:03:11.829Z,0.90
2023-03-15T10:04:11.743Z,0.80
2023-03-15T10:05:11.754Z,0.90
2023-03-15T10:06:11.712Z,0.90
2023-03-15T10:07:11.708Z,1.00
2023-03-15T10:08:11.770Z,0.70
2023-03-15T10:09:11.696Z,0.80
2023-03-15T10:10:11.696Z,1.00
2023-03-15T10:11:11.677Z,0.80
2023-03-15T10:12:11.654Z,0.80
2023-03-15T10:13:11.652Z,0.80
2023-03-15T10:14:11.867Z,0.80
2023-03-15T10:15:11.652Z,0.80
2023-03-15T10:16:11.794Z,0.90
2023-03-15T10:17:11.629Z,0.70
2023-03-15T10:18:11.657Z,0.80
2023-03-15T10:19:11.578Z,1.20
2023-03-15T10:20:11.585Z,1.00
2023-03-15T10:21:11.587Z,0.80
2023-03-15T10:22:11.613Z,0.80
2023-03-15T10:23:11.561Z,0.70
2023-03-15T10:24:11.615Z,0.80
2023-03-15T10:25:11.591Z,0.60
2023-03-15T10:26:12.662Z,0.80
2023-03-15T10:27:11.502Z,0.80
2023-03-15T10:28:11.512Z,0.80
2023-03-15T10:29:11.483Z,0.90
2023-03-15T10:30:11.469Z,0.70
2023-03-15T10:31:15.685Z,0.70
2023-03-15T10:32:11.523Z,0.80
2023-03-15T10:33:11.445Z,0.90
2023-03-15T10:34:11.446Z,0.80
2023-03-15T10:35:11.423Z,0.80
2023-03-15T10:36:11.836Z,0.80
2023-03-15T10:37:11.438Z,1.30
2023-03-15T10:38:11.399Z,0.70
2023-03-15T10:39:11.375Z,1.00
2023-03-15T10:40:11.363Z,0.80
2023-03-15T10:41:13.207Z,1.00
2023-03-15T10:42:11.380Z,0.80
2023-03-15T10:43:11.331Z,0.70
2023-03-15T10:44:11.351Z,0.70
2023-03-15T10:45:11.310Z,0.70
2023-03-15T10:46:11.395Z,0.90
2023-03-15T10:47:22.452Z,0.80
2023-03-15T10:48:11.337Z,0.60
2023-03-15T10:49:11.275Z,0.70
2023-03-15T10:50:11.257Z,0.70
2023-03-15T10:51:12.566Z,0.60
2023-03-15T10:52:11.262Z,0.70
2023-03-15T10:53:11.251Z,0.70
2023-03-15T10:54:11.234Z,0.80
2023-03-15T10:55:11.250Z,0.80
2023-03-15T10:56:11.201Z,0.80
2023-03-15T10:57:11.184Z,0.70
2023-03-15T10:58:11.198Z,0.80
2023-03-15T10:59:13.014Z,0.80
2023-03-15T11:00:11.172Z,0.70
2023-03-15T11:01:11.148Z,0.70
2023-03-15T11:02:11.137Z,0.80
2023-03-15T11:03:11.191Z,0.70
2023-03-15T11:04:11.116Z,0.70
2023-03-15T11:05:11.108Z,1.00
2023-03-15T11:06:11.110Z,0.70
2023-03-15T11:07:11.104Z,0.80
2023-03-15T11:08:11.085Z,0.70
2023-03-15T11:09:11.069Z,0.60
2023-03-15T11:10:11.071Z,0.80
2023-03-15T11:11:11.062Z,0.80
2023-03-15T11:12:11.030Z,0.60
2023-03-15T11:13:11.030Z,0.70
2023-03-15T11:14:11.010Z,0.90
2023-03-15T11:15:11.029Z,0.70
2023-03-15T11:16:11.042Z,0.70
2023-03-15T11:17:10.982Z,0.90
2023-03-15T11:18:11.006Z,1.00
2023-03-15T11:19:10.988Z,0.70
2023-03-15T11:20:10.946Z,0.90
2023-03-15T11:21:10.962Z,0.80
2023-03-15T11:22:10.933Z,0.70
2023-03-15T11:23:10.917Z,0.90
2023-03-15T11:24:10.931Z,0.70
2023-03-15T11:25:10.896Z,0.80
2023-03-15T11:26:14.111Z,1.00
2023-03-15T11:27:10.903Z,0.80
2023-03-15T11:28:10.905Z,0.80
2023-03-15T11:29:10.860Z,0.80
2023-03-15T11:30:10.841Z,0.80
2023-03-15T11:31:10.914Z,0.80
2023-03-15T11:32:10.842Z,1.00
2023-03-15T11:33:10.862Z,0.90
2023-03-15T11:34:10.829Z,0.70
2023-03-15T11:35:10.806Z,0.80
2023-03-15T11:36:12.369Z,0.70
2023-03-15T11:37:12.780Z,0.90
2023-03-15T11:38:15.029Z,0.70
2023-03-15T11:39:10.798Z,0.90
2023-03-15T11:40:12.349Z,0.60
2023-03-15T11:41:10.749Z,0.60
2023-03-15T11:42:11.271Z,0.70
2023-03-15T11:43:10.734Z,0.90
2023-03-15T11:44:10.731Z,0.70
2023-03-15T11:45:10.725Z,0.90
2023-03-15T11:46:10.731Z,0.90
2023-03-15T11:47:10.686Z,1.00
2023-03-15T11:48:10.840Z,0.80
2023-03-15T11:49:10.657Z,0.80
2023-03-15T11:50:10.661Z,0.80
2023-03-15T11:51:10.640Z,1.10
2023-03-15T11:52:10.683Z,0.60
2023-03-15T11:53:10.618Z,0.70
2023-03-15T11:54:10.660Z,0.90
2023-03-15T11:55:10.612Z,0.90
2023-03-15T11:56:10.585Z,0.60
2023-03-15T11:57:10.594Z,0.90
2023-03-15T11:58:10.582Z,0.70
2023-03-15T11:59:10.564Z,1.00
2023-03-15T12:00:10.594Z,1.30
2023-03-15T12:01:10.554Z,1.00
2023-03-15T12:02:10.843Z,0.90
2023-03-15T12:03:10.608Z,0.80
2023-03-15T12:04:10.576Z,0.80
2023-03-15T12:05:17.980Z,0.70
2023-03-15T12:06:10.515Z,0.70
2023-03-15T12:07:10.515Z,0.80
2023-03-15T12:08:10.490Z,0.70
2023-03-15T12:09:10.483Z,1.00
2023-03-15T12:10:10.460Z,0.70
2023-03-15T12:11:10.447Z,1.10
2023-03-15T12:12:10.434Z,1.10
2023-03-15T12:13:10.421Z,0.80
2023-03-15T12:14:10.410Z,0.80
2023-03-15T12:15:10.439Z,0.90
2023-03-15T12:16:10.447Z,0.90
2023-03-15T12:17:10.378Z,0.70
2023-03-15T12:18:10.367Z,0.70
2023-03-15T12:19:10.361Z,0.70
2023-03-15T12:20:10.370Z,1.00
2023-03-15T12:21:10.341Z,1.00
2023-03-15T12:22:10.317Z,0.70
2023-03-15T12:23:10.324Z,0.80
2023-03-15T12:24:10.300Z,0.80
2023-03-15T12:25:10.315Z,0.70
2023-03-15T12:26:10.290Z,0.70
2023-03-15T12:27:10.260Z,0.70
2023-03-15T12:28:10.269Z,0.80
2023-03-15T12:29:10.242Z,0.90
2023-03-15T12:30:10.285Z,0.80
2023-03-15T12:31:10.277Z,0.90
2023-03-15T12:32:10.229Z,0.90
2023-03-15T12:33:10.232Z,0.90
2023-03-15T12:34:10.234Z,0.80
2023-03-15T12:35:10.172Z,0.90
2023-03-15T12:36:10.210Z,0.80
2023-03-15T12:37:10.227Z,0.80
2023-03-15T12:38:10.147Z,0.90
2023-03-15T12:39:10.163Z,0.90
2023-03-15T12:40:10.160Z,0.80
2023-03-15T12:41:10.150Z,1.00
2023-03-15T12:42:10.116Z,0.80
2023-03-15T12:43:10.134Z,0.70
2023-03-15T12:44:10.194Z,0.60
2023-03-15T12:45:10.076Z,0.80
2023-03-15T12:46:10.150Z,0.90
2023-03-15T12:47:10.068Z,0.90
2023-03-15T12:48:10.144Z,0.80
2023-03-15T12:49:10.123Z,0.80
2023-03-15T12:50:10.026Z,1.00
2023-03-15T12:51:10.072Z,0.70
2023-03-15T12:52:09.999Z,0.90
2023-03-15T12:53:10.007Z,0.80
2023-03-15T12:54:09.980Z,1.00
2023-03-15T12:55:09.987Z,0.90
2023-03-15T12:56:09.962Z,0.80
2023-03-15T12:57:09.950Z,1.00
2023-03-15T12:58:10.017Z,0.80
2023-03-15T12:59:09.961Z,0.90
2023-03-15T13:00:09.916Z,0.80
2023-03-15T13:01:09.977Z,0.80
2023-03-15T13:02:09.912Z,0.70
2023-03-15T13:03:09.927Z,0.80
2023-03-15T13:04:09.883Z,0.80
2023-03-15T13:05:09.868Z,0.70
2023-03-15T13:06:09.867Z,0.80
2023-03-15T13:07:09.861Z,0.80
2023-03-15T13:08:09.978Z,0.90
2023-03-15T13:09:10.276Z,0.70
2023-03-15T13:10:09.921Z,0.80
2023-03-15T13:11:09.851Z,0.80
2023-03-15T13:12:10.657Z,0.60
2023-03-15T13:13:09.831Z,1.10
2023-03-15T13:14:09.804Z,0.80
2023-03-15T13:15:09.823Z,0.70
2023-03-15T13:16:09.849Z,0.70
2023-03-15T13:17:09.804Z,0.80
2023-03-15T13:18:09.805Z,0.80
2023-03-15T13:19:09.779Z,0.90
2023-03-15T13:20:09.733Z,0.70